Terminal Aerodrome Forecast
Issued by NWS

Home | Current Version | Previous Version | Text Only | Print | Product List | Glossary On
Versions: 1 2 3 4 5 6 7 8 9 10
000
FTUS43 KJKL 260926 AAA
TAFSME
TAF AMD
KSME 260926Z 2609/2706 VRB06KT 6SM -SN OVC050
     FM261500 33009KT 6SM -SHSN OVC020
     FM262300 33009KT 6SM -SHSN OVC025=

USA.gov is the U.S. government's official web portal to all federal, state and local government web resources and services.